createdAt,value
2018-03-06T00:01:50.088Z,13.67
2018-03-06T00:04:18.190Z,12.40
2018-03-06T00:06:46.296Z,13.43
2018-03-06T00:09:14.400Z,13.87
2018-03-06T00:11:42.524Z,13.20
2018-03-06T00:14:10.641Z,14.17
2018-03-06T00:16:38.731Z,12.17
2018-03-06T00:19:06.859Z,13.37
2018-03-06T00:21:34.955Z,16.27
2018-03-06T00:24:03.070Z,11.77
2018-03-06T00:26:31.173Z,14.30
2018-03-06T00:28:59.265Z,13.40
2018-03-06T00:31:27.380Z,12.33
2018-03-06T00:33:55.546Z,12.50
2018-03-06T00:36:23.657Z,12.50
2018-03-06T00:38:51.750Z,11.37
2018-03-06T00:41:19.871Z,11.03
2018-03-06T00:43:47.974Z,13.30
2018-03-06T00:46:16.100Z,11.97
2018-03-06T00:48:44.206Z,11.93
2018-03-06T00:51:12.315Z,11.90
2018-03-06T00:53:40.427Z,12.20
2018-03-06T00:56:08.546Z,10.87
2018-03-06T00:58:36.632Z,13.27
2018-03-06T01:01:04.748Z,12.17
2018-03-06T01:03:32.849Z,13.13
2018-03-06T01:06:00.956Z,13.00
2018-03-06T01:08:29.060Z,11.37
2018-03-06T01:10:57.163Z,12.40
2018-03-06T01:13:25.278Z,11.20
2018-03-06T01:15:53.379Z,11.27
2018-03-06T01:18:21.487Z,10.57
2018-03-06T01:20:49.606Z,10.47
2018-03-06T01:23:17.721Z,13.97
2018-03-06T01:25:45.821Z,15.63
2018-03-06T01:28:13.919Z,10.80
2018-03-06T01:30:42.031Z,13.43
2018-03-06T01:33:10.142Z,14.27
2018-03-06T01:35:38.235Z,14.33
2018-03-06T01:38:06.344Z,15.47
2018-03-06T01:40:35.875Z,13.53
2018-03-06T01:43:03.996Z,15.40
2018-03-06T01:45:32.174Z,14.43
2018-03-06T01:48:00.342Z,16.80
2018-03-06T01:50:28.405Z,15.47
2018-03-06T01:52:56.509Z,15.73
2018-03-06T01:55:24.629Z,15.83
2018-03-06T01:57:52.739Z,16.70
2018-03-06T02:00:20.831Z,14.00
2018-03-06T02:02:48.936Z,14.73
2018-03-06T02:05:17.059Z,15.37
2018-03-06T02:07:45.163Z,15.47
2018-03-06T02:10:13.289Z,16.13
2018-03-06T02:12:41.404Z,13.87
2018-03-06T02:15:09.527Z,13.57
2018-03-06T02:17:37.617Z,15.47
2018-03-06T02:20:05.714Z,14.37
2018-03-06T02:22:33.823Z,17.40
2018-03-06T02:25:01.935Z,15.07
2018-03-06T02:27:30.053Z,15.37
2018-03-06T02:29:58.164Z,19.60
2018-03-06T02:32:26.270Z,16.17
2018-03-06T02:34:54.367Z,15.77
2018-03-06T02:37:22.496Z,15.77
2018-03-06T02:39:50.610Z,15.77
2018-03-06T02:42:18.712Z,16.73
2018-03-06T02:44:46.828Z,17.47
2018-03-06T02:47:14.948Z,17.73
2018-03-06T02:49:43.098Z,15.83
2018-03-06T02:52:11.209Z,18.20
2018-03-06T02:54:39.319Z,16.43
2018-03-06T02:57:07.428Z,16.10
2018-03-06T02:59:35.551Z,18.47
2018-03-06T03:02:03.658Z,17.27
2018-03-06T03:04:31.756Z,16.10
2018-03-06T03:06:59.851Z,17.53
2018-03-06T03:09:27.964Z,16.43
2018-03-06T03:11:56.066Z,16.23
2018-03-06T03:14:24.179Z,18.97
2018-03-06T03:16:52.298Z,15.97
2018-03-06T03:19:20.392Z,16.07
2018-03-06T03:21:48.725Z,18.23
2018-03-06T03:24:16.823Z,17.50
2018-03-06T03:26:44.945Z,19.67
2018-03-06T03:29:13.073Z,17.47
2018-03-06T03:31:41.181Z,16.97
2018-03-06T03:34:09.305Z,17.23
2018-03-06T03:36:37.437Z,15.97
2018-03-06T03:39:05.557Z,17.77
2018-03-06T03:41:33.652Z,15.90
2018-03-06T03:44:01.780Z,18.33
2018-03-06T03:46:29.895Z,15.63
2018-03-06T03:48:57.999Z,18.70
2018-03-06T03:51:26.820Z,15.83
2018-03-06T03:53:55.029Z,18.50
2018-03-06T03:56:23.140Z,17.20
2018-03-06T03:58:51.262Z,15.70
2018-03-06T04:01:19.380Z,17.77
2018-03-06T04:03:47.485Z,18.27
2018-03-06T04:06:15.620Z,17.17
2018-03-06T04:08:43.738Z,17.07
2018-03-06T04:11:11.840Z,17.77
2018-03-06T04:13:39.968Z,18.43
2018-03-06T04:16:08.060Z,21.03
2018-03-06T04:18:36.162Z,21.07
2018-03-06T04:21:04.270Z,19.70
2018-03-06T04:23:32.367Z,21.47
2018-03-06T04:26:00.466Z,20.57
2018-03-06T04:28:28.579Z,21.93
2018-03-06T04:30:56.697Z,22.13
2018-03-06T04:33:24.809Z,21.43
2018-03-06T04:35:52.937Z,20.60
2018-03-06T04:38:21.031Z,20.53
2018-03-06T04:40:49.149Z,22.23
2018-03-06T04:43:17.311Z,24.60
2018-03-06T04:45:45.410Z,27.43
2018-03-06T04:48:13.515Z,28.20
2018-03-06T04:50:41.635Z,31.77
2018-03-06T04:53:09.735Z,32.33
2018-03-06T04:55:37.856Z,34.37
2018-03-06T04:58:05.949Z,33.90
2018-03-06T05:00:34.055Z,31.17
2018-03-06T05:03:02.169Z,34.80
2018-03-06T05:05:30.281Z,40.67
2018-03-06T05:07:58.386Z,46.17
2018-03-06T05:10:26.497Z,39.57
2018-03-06T05:12:54.605Z,36.93
2018-03-06T05:15:22.747Z,38.10
2018-03-06T05:17:50.851Z,37.47
2018-03-06T05:20:19.005Z,34.10
2018-03-06T05:22:47.099Z,36.73
2018-03-06T05:25:15.217Z,34.87
2018-03-06T05:27:43.348Z,34.63
2018-03-06T05:30:11.457Z,42.63
2018-03-06T05:32:39.577Z,37.43
2018-03-06T05:35:07.703Z,45.03
2018-03-06T05:37:35.804Z,36.90
2018-03-06T05:40:03.938Z,37.87
2018-03-06T05:42:32.062Z,35.30
2018-03-06T05:45:00.180Z,37.10
2018-03-06T05:47:28.300Z,35.43
2018-03-06T05:49:56.424Z,39.97
2018-03-06T05:52:24.552Z,40.13
2018-03-06T05:54:52.643Z,35.30
2018-03-06T05:57:20.753Z,35.83
2018-03-06T05:59:52.639Z,36.93
2018-03-06T06:02:20.758Z,37.73
2018-03-06T06:04:48.861Z,38.13
2018-03-06T06:07:16.990Z,37.93
2018-03-06T06:09:45.116Z,34.57
2018-03-06T06:12:14.040Z,42.67
2018-03-06T06:14:42.142Z,36.67
2018-03-06T06:17:10.375Z,38.70
2018-03-06T06:19:38.731Z,39.00
2018-03-06T06:22:06.859Z,39.67
2018-03-06T06:24:35.018Z,43.63
2018-03-06T06:27:03.082Z,41.67
2018-03-06T06:29:32.162Z,41.87
2018-03-06T06:32:00.272Z,41.30
2018-03-06T06:34:28.380Z,44.37
2018-03-06T06:36:56.506Z,40.13
2018-03-06T06:39:28.314Z,46.93
2018-03-06T06:41:56.430Z,44.03
2018-03-06T06:44:24.550Z,39.00
2018-03-06T06:46:52.731Z,41.73
2018-03-06T06:49:20.775Z,46.93
2018-03-06T06:51:48.895Z,41.10
2018-03-06T06:54:17.004Z,45.17
2018-03-06T06:56:45.128Z,40.40
2018-03-06T06:59:13.249Z,41.33
2018-03-06T07:01:41.351Z,44.33
2018-03-06T07:04:09.450Z,44.90
2018-03-06T07:06:37.579Z,40.50
2018-03-06T07:09:05.849Z,41.03
2018-03-06T07:11:34.069Z,41.80
2018-03-06T07:14:02.196Z,42.27
2018-03-06T07:16:30.307Z,44.33
2018-03-06T07:18:58.709Z,42.27
2018-03-06T07:21:26.834Z,45.73
2018-03-06T07:23:54.965Z,43.00
2018-03-06T07:26:23.069Z,42.73
2018-03-06T07:28:51.188Z,46.30
2018-03-06T07:31:19.318Z,43.80
2018-03-06T07:33:47.427Z,40.20
2018-03-06T07:36:15.532Z,43.07
2018-03-06T07:38:43.628Z,44.53
2018-03-06T07:41:11.760Z,40.57
2018-03-06T07:43:39.890Z,48.73
2018-03-06T07:46:07.992Z,44.03
2018-03-06T07:48:36.124Z,47.83
2018-03-06T07:51:04.237Z,45.70
2018-03-06T07:53:32.351Z,55.17
2018-03-06T07:56:00.493Z,44.43
2018-03-06T07:58:28.603Z,45.03
2018-03-06T08:00:56.726Z,43.30
2018-03-06T08:03:24.895Z,47.50
2018-03-06T08:05:56.715Z,46.70
2018-03-06T08:08:24.821Z,47.37
2018-03-06T08:10:53.454Z,41.80
2018-03-06T08:13:21.595Z,44.83
2018-03-06T08:15:49.678Z,44.80
2018-03-06T08:18:17.817Z,47.77
2018-03-06T08:20:45.919Z,43.23
2018-03-06T08:23:14.047Z,44.13
2018-03-06T08:25:42.163Z,48.00
2018-03-06T08:28:10.269Z,48.03
2018-03-06T08:30:38.384Z,50.17
2018-03-06T08:33:06.498Z,46.40
2018-03-06T08:35:34.618Z,48.90
2018-03-06T08:38:02.751Z,44.97
2018-03-06T08:40:30.863Z,47.00
2018-03-06T08:42:58.993Z,44.90
2018-03-06T08:45:27.113Z,44.97
2018-03-06T08:47:55.232Z,39.63
2018-03-06T08:50:23.365Z,55.70
2018-03-06T08:52:51.497Z,45.00
2018-03-06T08:55:19.610Z,48.40
2018-03-06T08:57:47.740Z,44.33
2018-03-06T09:00:15.867Z,41.20
2018-03-06T09:02:43.993Z,43.40
2018-03-06T09:05:12.122Z,48.20
2018-03-06T09:07:40.231Z,49.43
2018-03-06T09:10:08.338Z,48.83
2018-03-06T09:12:36.477Z,43.43
2018-03-06T09:15:04.588Z,49.73
2018-03-06T09:17:32.724Z,42.93
2018-03-06T09:20:00.852Z,42.77
2018-03-06T09:22:28.963Z,39.33
2018-03-06T09:24:57.101Z,40.70
2018-03-06T09:27:25.349Z,43.90
2018-03-06T09:29:53.471Z,41.13
2018-03-06T09:32:21.606Z,41.50
2018-03-06T09:34:49.720Z,45.57
2018-03-06T09:37:17.843Z,41.67
2018-03-06T09:39:45.967Z,43.07
2018-03-06T09:42:14.106Z,40.60
2018-03-06T09:44:42.216Z,41.70
2018-03-06T09:47:10.335Z,43.33
2018-03-06T09:49:38.462Z,39.83
2018-03-06T09:52:06.565Z,41.17
2018-03-06T09:54:34.687Z,44.37
2018-03-06T09:57:02.808Z,42.90
2018-03-06T09:59:30.923Z,35.10
2018-03-06T10:01:59.055Z,43.30
2018-03-06T10:04:27.157Z,41.00
2018-03-06T10:06:55.280Z,37.93
2018-03-06T10:09:23.396Z,46.97
2018-03-06T10:11:51.524Z,47.50
2018-03-06T10:14:19.666Z,44.50
2018-03-06T10:16:47.781Z,41.10
2018-03-06T10:19:15.923Z,44.80
2018-03-06T10:21:44.023Z,39.80
2018-03-06T10:24:12.128Z,37.47
2018-03-06T10:26:40.251Z,43.60
2018-03-06T10:29:08.406Z,34.07
2018-03-06T10:31:36.510Z,36.20
2018-03-06T10:34:04.653Z,33.10
2018-03-06T10:36:32.795Z,41.33
2018-03-06T10:39:00.916Z,35.93
2018-03-06T10:41:29.028Z,34.43
2018-03-06T10:43:57.146Z,39.20
2018-03-06T10:46:25.265Z,40.53
2018-03-06T10:48:53.392Z,39.87
2018-03-06T10:51:21.506Z,36.27
2018-03-06T10:53:49.627Z,39.37
2018-03-06T10:56:17.761Z,36.10
2018-03-06T10:58:45.883Z,44.30
2018-03-06T11:01:19.547Z,36.83
2018-03-06T11:03:47.661Z,33.77
2018-03-06T11:06:15.776Z,45.77
2018-03-06T11:08:43.892Z,40.83
2018-03-06T11:11:12.015Z,41.70
2018-03-06T11:13:40.109Z,37.97
2018-03-06T11:16:08.258Z,39.23
2018-03-06T11:18:36.760Z,38.83
2018-03-06T11:21:04.889Z,38.37
2018-03-06T11:23:36.026Z,39.00
2018-03-06T11:26:04.165Z,41.37
2018-03-06T11:28:32.308Z,40.70
2018-03-06T11:31:00.430Z,37.73
2018-03-06T11:33:28.543Z,49.93
2018-03-06T11:36:00.328Z,38.77
2018-03-06T11:38:28.450Z,35.43
2018-03-06T11:40:56.559Z,39.23
2018-03-06T11:43:24.684Z,45.43
2018-03-06T11:45:52.810Z,48.77
2018-03-06T11:48:20.966Z,40.13
2018-03-06T11:50:49.063Z,47.73
2018-03-06T11:53:17.209Z,42.17
2018-03-06T11:55:45.346Z,47.90
2018-03-06T11:58:13.470Z,45.77
2018-03-06T12:00:41.604Z,50.20
2018-03-06T12:03:09.722Z,40.50
2018-03-06T12:05:37.836Z,44.60
2018-03-06T12:08:05.951Z,43.50
2018-03-06T12:10:34.073Z,39.60
2018-03-06T12:13:02.244Z,42.87
2018-03-06T12:15:30.366Z,42.57
2018-03-06T12:18:01.890Z,53.37
2018-03-06T12:20:30.015Z,41.97
2018-03-06T12:22:58.130Z,60.57
2018-03-06T12:25:26.269Z,43.77
2018-03-06T12:27:54.379Z,40.20
2018-03-06T12:30:22.493Z,42.97
2018-03-06T12:32:50.639Z,37.80
2018-03-06T12:35:18.781Z,34.63
2018-03-06T12:37:46.909Z,47.37
2018-03-06T12:40:15.047Z,37.57
2018-03-06T12:42:43.171Z,36.23
2018-03-06T12:45:11.296Z,41.33
2018-03-06T12:47:39.430Z,39.40
2018-03-06T12:50:07.531Z,37.03
2018-03-06T12:52:35.666Z,38.87
2018-03-06T12:55:03.775Z,35.63
2018-03-06T12:57:31.885Z,35.03
2018-03-06T13:00:00.016Z,33.03
2018-03-06T13:02:28.134Z,33.30
2018-03-06T13:04:56.259Z,36.93
2018-03-06T13:07:24.365Z,40.50
2018-03-06T13:09:52.473Z,37.20
2018-03-06T13:12:20.626Z,36.90
2018-03-06T13:14:48.730Z,33.33
2018-03-06T13:17:16.875Z,33.77
2018-03-06T13:19:45.001Z,31.07
2018-03-06T13:22:13.113Z,36.17
2018-03-06T13:24:41.242Z,46.27
2018-03-06T13:27:09.360Z,33.53
2018-03-06T13:29:37.471Z,31.80
2018-03-06T13:32:05.604Z,30.13
2018-03-06T13:34:33.713Z,29.13
2018-03-06T13:37:01.849Z,33.07
2018-03-06T13:39:29.983Z,30.57
2018-03-06T13:41:58.113Z,30.07
2018-03-06T13:44:26.233Z,27.10
2018-03-06T13:46:54.342Z,28.77
2018-03-06T13:49:22.497Z,29.87
2018-03-06T13:51:50.642Z,34.43
2018-03-06T13:54:18.786Z,32.50
2018-03-06T13:56:46.921Z,31.07
2018-03-06T13:59:15.063Z,34.30
2018-03-06T14:01:43.177Z,30.70
2018-03-06T14:04:14.437Z,33.37
2018-03-06T14:06:42.583Z,27.13
2018-03-06T14:09:10.684Z,26.10
2018-03-06T14:11:38.819Z,25.47
2018-03-06T14:14:06.936Z,23.57
2018-03-06T14:16:35.078Z,21.17
2018-03-06T14:19:03.198Z,26.07
2018-03-06T14:21:31.305Z,27.00
2018-03-06T14:23:59.428Z,25.63
2018-03-06T14:26:27.532Z,24.10
2018-03-06T14:28:55.670Z,22.00
2018-03-06T14:31:23.801Z,18.73
2018-03-06T14:33:51.983Z,25.20
2018-03-06T14:36:20.148Z,19.50
2018-03-06T14:38:48.269Z,20.93
2018-03-06T14:41:16.376Z,21.13
2018-03-06T14:43:44.507Z,18.87
2018-03-06T14:46:12.629Z,19.03
2018-03-06T14:48:40.757Z,21.30
2018-03-06T14:51:09.009Z,21.97
2018-03-06T14:53:37.079Z,24.20
2018-03-06T14:56:05.193Z,20.50
2018-03-06T14:58:37.003Z,19.17
2018-03-06T15:01:05.144Z,24.77
2018-03-06T15:03:33.261Z,18.10
2018-03-06T15:06:04.410Z,22.33
2018-03-06T15:08:32.564Z,24.70
2018-03-06T15:11:00.692Z,20.03
2018-03-06T15:13:28.807Z,21.80
2018-03-06T15:15:56.940Z,19.53
2018-03-06T15:18:25.074Z,19.67
2018-03-06T15:20:53.698Z,16.80
2018-03-06T15:23:21.816Z,23.83
2018-03-06T15:25:49.946Z,15.27
2018-03-06T15:28:18.063Z,18.93
2018-03-06T15:30:46.197Z,17.33
2018-03-06T15:33:14.313Z,19.77
2018-03-06T15:35:42.430Z,18.73
2018-03-06T15:38:10.599Z,22.57
2018-03-06T15:40:38.735Z,16.87
2018-03-06T15:43:06.891Z,20.57
2018-03-06T15:45:35.029Z,19.93
2018-03-06T15:48:03.160Z,20.87
2018-03-06T15:50:31.332Z,18.13
2018-03-06T15:52:59.488Z,19.33
2018-03-06T15:55:27.642Z,27.20
2018-03-06T15:57:55.837Z,20.00
2018-03-06T16:00:23.940Z,23.23
2018-03-06T16:02:52.108Z,25.57
2018-03-06T16:05:20.253Z,19.37
2018-03-06T16:07:48.403Z,21.80
2018-03-06T16:10:16.539Z,25.33
2018-03-06T16:12:44.696Z,19.00
2018-03-06T16:15:12.832Z,22.40
2018-03-06T16:17:41.002Z,22.03
2018-03-06T16:20:09.149Z,20.93
2018-03-06T16:22:37.293Z,23.03
2018-03-06T16:25:05.438Z,23.13
2018-03-06T16:27:33.630Z,17.43
2018-03-06T16:30:01.730Z,20.07
2018-03-06T16:32:29.862Z,22.87
2018-03-06T16:34:58.010Z,23.20
2018-03-06T16:37:26.182Z,23.43
2018-03-06T16:39:54.363Z,23.90
2018-03-06T16:42:22.534Z,24.47
2018-03-06T16:44:50.683Z,25.00
2018-03-06T16:47:18.821Z,26.17
2018-03-06T16:49:46.967Z,23.57
2018-03-06T16:52:15.129Z,22.43
2018-03-06T16:54:43.289Z,22.93
2018-03-06T16:57:11.426Z,27.00
2018-03-06T16:59:39.580Z,24.60
2018-03-06T17:02:07.713Z,27.80
2018-03-06T17:04:35.902Z,22.40
2018-03-06T17:07:04.294Z,24.60
2018-03-06T17:09:32.462Z,23.60
2018-03-06T17:12:00.601Z,23.60
2018-03-06T17:14:32.282Z,25.60
2018-03-06T17:17:00.567Z,24.03
2018-03-06T17:19:28.836Z,22.30
2018-03-06T17:21:56.958Z,29.77
2018-03-06T17:24:25.115Z,29.63
2018-03-06T17:26:53.264Z,25.73
2018-03-06T17:29:25.042Z,22.90
2018-03-06T17:31:53.196Z,27.70
2018-03-06T17:34:21.341Z,26.20
2018-03-06T17:36:49.479Z,28.17
2018-03-06T17:39:19.536Z,26.70
2018-03-06T17:41:47.759Z,28.93
2018-03-06T17:44:15.995Z,26.07
2018-03-06T17:46:44.131Z,24.27
2018-03-06T17:49:12.290Z,28.17
2018-03-06T17:51:40.437Z,25.80
2018-03-06T17:54:08.612Z,28.30
2018-03-06T17:56:36.741Z,25.83
2018-03-06T17:59:04.884Z,25.53
2018-03-06T18:01:33.324Z,24.83
2018-03-06T18:04:01.478Z,26.17
2018-03-06T18:06:29.639Z,23.33
2018-03-06T18:08:57.778Z,25.03
2018-03-06T18:11:25.917Z,23.53
2018-03-06T18:13:54.067Z,25.70
2018-03-06T18:16:22.279Z,24.53
2018-03-06T18:18:50.429Z,23.30
2018-03-06T18:21:18.573Z,24.50
2018-03-06T18:23:46.726Z,21.13
2018-03-06T18:26:15.786Z,22.40
2018-03-06T18:28:43.937Z,20.67
2018-03-06T18:31:12.080Z,24.27
2018-03-06T18:33:40.211Z,23.23
2018-03-06T18:36:08.386Z,20.03
2018-03-06T18:38:36.567Z,25.87
2018-03-06T18:41:04.705Z,24.80
2018-03-06T18:43:32.857Z,23.77
2018-03-06T18:46:01.931Z,25.43
2018-03-06T18:48:30.075Z,21.27
2018-03-06T18:51:08.991Z,25.30
2018-03-06T18:53:37.140Z,24.10
2018-03-06T18:56:05.284Z,28.73
2018-03-06T18:58:33.435Z,25.07
2018-03-06T19:01:13.310Z,27.87
2018-03-06T19:03:53.264Z,24.10
2018-03-06T19:06:24.500Z,27.47
2018-03-06T19:08:52.675Z,29.03
2018-03-06T19:11:20.865Z,24.87
2018-03-06T19:13:49.004Z,23.73
2018-03-06T19:16:17.164Z,26.90
2018-03-06T19:18:45.325Z,26.03
2018-03-06T19:21:13.478Z,24.33
2018-03-06T19:23:41.620Z,24.23
2018-03-06T19:26:09.763Z,30.53
2018-03-06T19:28:37.905Z,27.53
2018-03-06T19:31:06.049Z,27.90
2018-03-06T19:33:34.183Z,22.77
2018-03-06T19:36:02.315Z,28.20
2018-03-06T19:38:30.439Z,24.70
2018-03-06T19:40:58.534Z,27.50
2018-03-06T19:43:26.669Z,27.07
2018-03-06T19:45:54.807Z,26.37
2018-03-06T19:48:22.912Z,25.77
2018-03-06T19:50:51.044Z,23.10
2018-03-06T19:53:19.167Z,28.33
2018-03-06T19:55:47.284Z,26.03
2018-03-06T19:58:15.417Z,27.83
2018-03-06T20:00:43.519Z,27.63
2018-03-06T20:03:11.659Z,27.47
2018-03-06T20:05:39.775Z,27.03
2018-03-06T20:08:07.885Z,25.77
2018-03-06T20:10:36.020Z,28.97
2018-03-06T20:13:04.128Z,22.33
2018-03-06T20:15:32.241Z,26.80
2018-03-06T20:18:00.351Z,26.13
2018-03-06T20:20:28.471Z,23.57
2018-03-06T20:22:56.625Z,27.47
2018-03-06T20:25:30.309Z,28.83
2018-03-06T20:27:58.486Z,26.73
2018-03-06T20:30:32.223Z,26.23
2018-03-06T20:33:05.889Z,28.93
2018-03-06T20:35:34.012Z,29.77
2018-03-06T20:38:02.116Z,26.53
2018-03-06T20:40:35.251Z,30.17
2018-03-06T20:43:03.351Z,27.47
2018-03-06T20:45:37.120Z,30.20
2018-03-06T20:48:05.244Z,30.00
2018-03-06T20:50:33.358Z,33.47
2018-03-06T20:56:09.595Z,30.80
2018-03-06T20:58:37.849Z,28.97
2018-03-06T21:01:05.945Z,29.90
2018-03-06T21:03:34.061Z,29.53
2018-03-06T21:06:02.193Z,33.87
2018-03-06T21:08:30.303Z,29.37
2018-03-06T21:10:58.427Z,35.10
2018-03-06T21:13:26.591Z,30.87
2018-03-06T21:15:56.612Z,34.20
2018-03-06T21:18:24.745Z,33.33
2018-03-06T21:20:53.399Z,30.87
2018-03-06T21:23:21.518Z,34.70
2018-03-06T21:25:49.636Z,32.57
2018-03-06T21:28:17.771Z,36.23
2018-03-06T21:30:45.870Z,36.47
2018-03-06T21:33:14.006Z,31.03
2018-03-06T21:35:42.107Z,34.50
2018-03-06T21:38:10.241Z,32.27
2018-03-06T21:40:38.386Z,33.50
2018-03-06T21:43:06.465Z,29.77
2018-03-06T21:45:34.586Z,33.33
2018-03-06T21:48:02.707Z,33.03
2018-03-06T21:50:30.906Z,31.23
2018-03-06T21:52:59.033Z,35.23
2018-03-06T21:55:27.284Z,30.80
2018-03-06T21:57:59.179Z,33.03
2018-03-06T22:00:27.291Z,34.53
2018-03-06T22:02:55.413Z,33.40
2018-03-06T22:05:23.519Z,36.23
2018-03-06T22:07:51.658Z,32.37
2018-03-06T22:10:19.787Z,30.93
2018-03-06T22:12:47.901Z,34.07
2018-03-06T22:15:16.022Z,31.80
2018-03-06T22:17:44.153Z,34.60
2018-03-06T22:20:12.268Z,34.67
2018-03-06T22:22:40.383Z,32.60
2018-03-06T22:25:08.503Z,34.53
2018-03-06T22:27:36.619Z,35.37
2018-03-06T22:30:04.804Z,36.20
2018-03-06T22:32:32.991Z,37.27
2018-03-06T22:35:01.117Z,34.23
2018-03-06T22:37:29.216Z,35.03
2018-03-06T22:39:57.346Z,34.83
2018-03-06T22:42:25.445Z,37.30
2018-03-06T22:44:53.548Z,35.43
2018-03-06T22:47:21.684Z,37.13
2018-03-06T22:49:49.790Z,34.97
2018-03-06T22:52:17.893Z,41.03
2018-03-06T22:54:46.027Z,44.73
2018-03-06T22:57:14.127Z,41.60
2018-03-06T22:59:42.237Z,37.47
2018-03-06T23:02:10.348Z,42.73
2018-03-06T23:04:38.481Z,38.17
2018-03-06T23:07:06.603Z,39.53
2018-03-06T23:09:34.705Z,39.43
2018-03-06T23:12:02.829Z,41.87
2018-03-06T23:14:30.941Z,41.70
2018-03-06T23:16:59.044Z,37.40
2018-03-06T23:19:27.160Z,37.20
2018-03-06T23:21:55.270Z,39.57
2018-03-06T23:24:23.403Z,41.30
2018-03-06T23:26:51.519Z,41.10
2018-03-06T23:29:19.658Z,44.87
2018-03-06T23:31:47.761Z,42.23
2018-03-06T23:34:15.877Z,42.23
2018-03-06T23:36:47.517Z,42.63
2018-03-06T23:39:15.620Z,44.47
2018-03-06T23:41:44.005Z,43.93
2018-03-06T23:44:12.137Z,43.17
2018-03-06T23:46:40.258Z,43.00
2018-03-06T23:49:08.354Z,42.90
2018-03-06T23:51:36.463Z,41.40
2018-03-06T23:54:04.586Z,42.23
2018-03-06T23:56:32.698Z,42.97
2018-03-06T23:59:00.799Z,41.10
